createdAt,value
2022-08-25T00:01:23.509Z,71.44
2022-08-25T00:04:04.058Z,71.90
2022-08-25T00:06:33.064Z,72.05
2022-08-25T00:09:06.646Z,72.33
2022-08-25T00:11:37.413Z,71.92
2022-08-25T00:14:14.003Z,72.38
2022-08-25T00:16:49.355Z,72.19
2022-08-25T00:19:23.513Z,72.00
2022-08-25T00:21:50.748Z,72.30
2022-08-25T00:24:23.069Z,72.37
2022-08-25T00:26:54.962Z,72.13
2022-08-25T00:29:29.935Z,72.49
2022-08-25T00:32:05.829Z,72.62
2022-08-25T00:34:38.359Z,72.83
2022-08-25T00:37:09.172Z,72.74
2022-08-25T00:39:41.293Z,72.68
2022-08-25T00:42:11.907Z,73.28
2022-08-25T00:44:43.846Z,74.15
2022-08-25T00:47:13.304Z,74.23
2022-08-25T00:49:43.960Z,74.05
2022-08-25T00:52:13.967Z,74.33
2022-08-25T00:55:07.729Z,74.53
2022-08-25T00:57:51.643Z,74.75
2022-08-25T01:00:49.631Z,74.38
2022-08-25T01:03:19.515Z,74.54
2022-08-25T01:05:49.512Z,74.18
2022-08-25T01:08:18.416Z,74.57
2022-08-25T01:10:46.266Z,74.71
2022-08-25T01:13:22.136Z,74.58
2022-08-25T01:15:50.385Z,74.43
2022-08-25T01:18:17.052Z,74.41
2022-08-25T01:20:49.288Z,74.45
2022-08-25T01:23:19.610Z,74.34
2022-08-25T01:26:11.816Z,74.07
2022-08-25T01:28:38.815Z,74.10
2022-08-25T01:31:05.492Z,74.94
2022-08-25T01:33:51.130Z,74.64
2022-08-25T01:36:20.032Z,74.83
2022-08-25T01:38:46.587Z,75.37
2022-08-25T01:41:17.543Z,75.78
2022-08-25T01:43:44.291Z,76.04
2022-08-25T01:46:11.190Z,76.54
2022-08-25T01:48:38.040Z,76.64
2022-08-25T01:51:04.698Z,77.02
2022-08-25T01:53:33.545Z,77.24
2022-08-25T01:56:09.769Z,77.25
2022-08-25T01:58:39.081Z,77.14
2022-08-25T02:01:09.235Z,76.92
2022-08-25T02:03:42.033Z,77.08
2022-08-25T02:06:12.240Z,77.55
2022-08-25T02:08:40.300Z,77.50
2022-08-25T02:11:11.975Z,77.61
2022-08-25T02:13:40.439Z,77.66
2022-08-25T02:16:08.891Z,77.61
2022-08-25T02:18:35.639Z,77.86
2022-08-25T02:21:02.549Z,77.99
2022-08-25T02:23:30.182Z,78.07
2022-08-25T02:25:57.298Z,78.40
2022-08-25T02:28:24.931Z,79.34
2022-08-25T02:30:53.178Z,79.27
2022-08-25T02:33:25.640Z,79.55
2022-08-25T02:35:52.240Z,79.30
2022-08-25T02:38:18.952Z,79.19
2022-08-25T02:40:45.476Z,79.32
2022-08-25T02:43:12.175Z,79.16
2022-08-25T02:45:39.066Z,79.17
2022-08-25T02:48:05.803Z,78.97
2022-08-25T02:50:33.288Z,79.63
2022-08-25T02:52:59.962Z,79.38
2022-08-25T02:55:26.641Z,79.68
2022-08-25T02:57:53.247Z,79.52
2022-08-25T03:00:20.184Z,79.02
2022-08-25T03:02:47.381Z,78.96
2022-08-25T03:05:15.690Z,79.05
2022-08-25T03:07:42.617Z,79.36
2022-08-25T03:10:13.417Z,80.07
2022-08-25T03:12:41.615Z,79.97
2022-08-25T03:15:16.414Z,80.12
2022-08-25T03:17:47.507Z,79.53
2022-08-25T03:20:14.165Z,79.26
2022-08-25T03:22:41.184Z,78.80
2022-08-25T03:25:27.138Z,78.77
2022-08-25T03:27:53.950Z,79.19
2022-08-25T03:30:20.649Z,79.15
2022-08-25T03:32:47.370Z,80.47
2022-08-25T03:35:13.972Z,80.11
2022-08-25T03:37:40.936Z,80.22
2022-08-25T03:40:13.989Z,80.95
2022-08-25T03:42:46.662Z,80.73
2022-08-25T03:45:16.420Z,80.23
2022-08-25T03:47:47.443Z,80.60
2022-08-25T03:50:14.764Z,80.77
2022-08-25T03:52:42.710Z,80.78
2022-08-25T03:55:12.017Z,81.39
2022-08-25T03:57:38.848Z,81.25
2022-08-25T04:00:10.307Z,81.37
2022-08-25T04:02:40.624Z,81.51
2022-08-25T04:05:08.226Z,82.14
2022-08-25T04:07:35.540Z,81.65
2022-08-25T04:10:02.622Z,81.69
2022-08-25T04:12:29.123Z,81.94
2022-08-25T04:14:55.920Z,81.93
2022-08-25T04:17:22.908Z,81.58
2022-08-25T04:19:51.093Z,81.26
2022-08-25T04:22:17.900Z,80.83
2022-08-25T04:24:44.439Z,80.60
2022-08-25T04:27:11.262Z,80.20
2022-08-25T04:29:38.444Z,80.03
2022-08-25T04:32:05.193Z,79.97
2022-08-25T04:34:31.860Z,79.82
2022-08-25T04:37:02.899Z,79.83
2022-08-25T04:39:30.554Z,79.76
2022-08-25T04:41:57.706Z,80.26
2022-08-25T04:44:24.322Z,80.57
2022-08-25T04:46:50.965Z,81.31
2022-08-25T04:49:17.772Z,80.93
2022-08-25T04:51:44.506Z,81.25
2022-08-25T04:54:14.064Z,81.00
2022-08-25T04:56:41.289Z,81.01
2022-08-25T04:59:11.600Z,80.71
2022-08-25T05:01:39.251Z,80.42
2022-08-25T05:04:07.949Z,80.60
2022-08-25T05:06:35.382Z,80.72
2022-08-25T05:09:03.091Z,80.78
2022-08-25T05:11:32.155Z,80.57
2022-08-25T05:14:01.422Z,80.31
2022-08-25T05:16:28.478Z,80.21
2022-08-25T05:18:55.614Z,79.98
2022-08-25T05:21:25.047Z,80.04
2022-08-25T05:23:56.746Z,80.53
2022-08-25T05:26:25.469Z,80.07
2022-08-25T05:28:54.096Z,79.58
2022-08-25T05:31:23.329Z,79.43
2022-08-25T05:33:50.751Z,79.55
2022-08-25T05:36:18.246Z,78.97
2022-08-25T05:38:44.915Z,78.80
2022-08-25T05:41:16.175Z,78.47
2022-08-25T05:43:44.203Z,78.29
2022-08-25T05:46:11.984Z,78.69
2022-08-25T05:48:38.746Z,78.15
2022-08-25T05:51:10.371Z,77.77
2022-08-25T05:53:39.721Z,77.88
2022-08-25T05:56:06.489Z,77.83
2022-08-25T05:58:33.585Z,77.88
2022-08-25T06:01:19.846Z,77.54
2022-08-25T06:03:47.646Z,77.50
2022-08-25T06:06:15.995Z,77.42
2022-08-25T06:08:44.334Z,76.56
2022-08-25T06:11:12.668Z,75.31
2022-08-25T06:13:39.898Z,76.19
2022-08-25T06:16:07.121Z,74.88
2022-08-25T06:18:33.730Z,75.81
2022-08-25T06:21:08.362Z,75.78
2022-08-25T06:23:34.988Z,75.83
2022-08-25T06:26:01.938Z,75.97
2022-08-25T06:28:28.611Z,75.82
2022-08-25T06:31:00.295Z,75.78
2022-08-25T06:33:26.995Z,75.64
2022-08-25T06:35:56.017Z,74.77
2022-08-25T06:38:23.094Z,73.79
2022-08-25T06:40:52.088Z,73.77
2022-08-25T06:43:21.953Z,74.09
2022-08-25T06:45:48.662Z,73.94
2022-08-25T06:48:15.845Z,73.43
2022-08-25T06:50:43.331Z,73.05
2022-08-25T06:53:10.121Z,73.03
2022-08-25T06:55:36.868Z,72.23
2022-08-25T06:58:04.961Z,72.78
2022-08-25T07:00:32.885Z,72.00
2022-08-25T07:03:01.140Z,71.52
2022-08-25T07:05:40.879Z,71.52
2022-08-25T07:08:11.791Z,71.45
2022-08-25T07:10:38.865Z,72.00
2022-08-25T07:13:05.441Z,72.19
2022-08-25T07:15:32.018Z,70.53
2022-08-25T07:17:58.729Z,70.32
2022-08-25T07:22:57.827Z,68.72
2022-08-25T07:25:24.537Z,67.97
2022-08-25T07:27:52.365Z,67.86
2022-08-25T07:30:20.876Z,67.26
2022-08-25T07:32:47.476Z,67.68
2022-08-25T07:35:24.591Z,67.35
2022-08-25T07:37:56.763Z,66.38
2022-08-25T07:40:27.242Z,67.17
2022-08-25T07:42:56.831Z,67.05
2022-08-25T07:45:30.473Z,65.50
2022-08-25T07:48:03.209Z,64.04
2022-08-25T07:50:31.255Z,64.65
2022-08-25T07:52:58.765Z,62.88
2022-08-25T07:55:27.229Z,62.87
2022-08-25T07:57:57.168Z,62.02
2022-08-25T08:00:27.725Z,62.13
2022-08-25T08:02:55.134Z,60.92
2022-08-25T08:05:23.969Z,60.97
2022-08-25T08:07:51.955Z,61.60
2022-08-25T08:13:07.535Z,59.64
2022-08-25T08:15:35.459Z,58.52
2022-08-25T08:18:03.226Z,57.82
2022-08-25T08:20:42.611Z,57.99
2022-08-25T08:23:09.568Z,58.34
2022-08-25T08:25:36.155Z,57.82
2022-08-25T08:28:03.048Z,57.69
2022-08-25T08:30:30.229Z,56.92
2022-08-25T08:33:12.825Z,56.07
2022-08-25T08:35:43.046Z,55.54
2022-08-25T08:38:14.902Z,55.68
2022-08-25T08:41:29.741Z,55.47
2022-08-25T08:44:16.502Z,54.42
2022-08-25T08:47:03.561Z,54.10
2022-08-25T08:49:48.461Z,53.89
2022-08-25T08:52:16.689Z,53.58
2022-08-25T08:54:44.705Z,53.03
2022-08-25T08:57:16.473Z,53.78
2022-08-25T08:59:48.928Z,53.00
2022-08-25T09:02:39.127Z,54.01
2022-08-25T09:05:19.809Z,53.46
2022-08-25T09:08:07.194Z,53.21
2022-08-25T09:10:47.932Z,53.00
2022-08-25T09:13:42.696Z,51.87
2022-08-25T09:16:39.266Z,52.47
2022-08-25T09:19:23.378Z,51.12
2022-08-25T09:22:33.290Z,49.91
2022-08-25T09:25:16.332Z,50.61
2022-08-25T09:28:00.799Z,48.37
2022-08-25T09:30:28.663Z,50.85
2022-08-25T09:33:03.600Z,52.27
2022-08-25T09:35:34.274Z,50.17
2022-08-25T09:38:03.651Z,51.63
2022-08-25T09:40:32.969Z,51.07
2022-08-25T09:43:01.672Z,51.31
2022-08-25T09:45:46.311Z,49.62
2022-08-25T09:48:42.932Z,48.20
2022-08-25T09:51:37.898Z,47.95
2022-08-25T09:54:18.108Z,49.70
2022-08-25T09:57:01.188Z,49.72
2022-08-25T09:59:37.462Z,49.89
2022-08-25T10:02:25.782Z,49.46
2022-08-25T10:04:52.979Z,50.03
2022-08-25T10:07:32.425Z,49.11
2022-08-25T10:10:01.710Z,48.58
2022-08-25T10:12:42.622Z,48.15
2022-08-25T10:15:29.749Z,48.07
2022-08-25T10:18:19.481Z,48.20
2022-08-25T10:21:04.144Z,47.19
2022-08-25T10:23:41.118Z,46.93
2022-08-25T10:26:13.782Z,46.44
2022-08-25T10:29:16.544Z,47.07
2022-08-25T10:31:52.313Z,47.75
2022-08-25T10:34:47.000Z,47.19
2022-08-25T10:37:32.630Z,47.12
2022-08-25T10:40:05.818Z,45.99
2022-08-25T10:43:08.578Z,46.28
2022-08-25T10:45:51.017Z,46.56
2022-08-25T10:48:37.946Z,45.70
2022-08-25T10:51:25.865Z,44.91
2022-08-25T10:54:23.181Z,45.18
2022-08-25T10:57:28.804Z,43.71
2022-08-25T11:00:12.453Z,44.65
2022-08-25T11:03:00.373Z,43.35
2022-08-25T11:05:33.337Z,43.81
2022-08-25T11:08:12.607Z,41.47
2022-08-25T11:10:47.887Z,42.61
2022-08-25T11:13:24.365Z,42.55
2022-08-25T11:16:16.127Z,43.55
2022-08-25T11:18:47.930Z,43.55
2022-08-25T11:21:32.662Z,44.43
2022-08-25T11:24:26.515Z,42.10
2022-08-25T11:26:56.625Z,43.16
2022-08-25T11:29:27.025Z,44.12
2022-08-25T11:31:54.141Z,43.19
2022-08-25T11:34:21.701Z,42.49
2022-08-25T11:36:55.452Z,40.97
2022-08-25T11:39:39.129Z,42.38
2022-08-25T11:42:58.396Z,43.61
2022-08-25T11:45:42.567Z,43.56
2022-08-25T11:48:22.149Z,42.75
2022-08-25T11:51:04.868Z,41.84
2022-08-25T11:53:37.848Z,42.47
2022-08-25T11:56:08.903Z,42.52
2022-08-25T11:58:51.715Z,43.36
2022-08-25T12:01:40.354Z,42.79
2022-08-25T12:04:44.689Z,40.24
2022-08-25T12:07:14.921Z,42.06
2022-08-25T12:09:50.944Z,41.05
2022-08-25T12:12:37.297Z,42.13
2022-08-25T12:15:24.279Z,41.28
2022-08-25T12:18:11.393Z,41.58
2022-08-25T12:20:53.413Z,40.78
2022-08-25T12:23:29.464Z,42.72
2022-08-25T12:26:01.779Z,42.12
2022-08-25T12:28:57.092Z,41.17
2022-08-25T12:31:51.067Z,42.04
2022-08-25T12:34:36.987Z,40.95
2022-08-25T12:37:22.272Z,41.27
2022-08-25T12:39:48.845Z,40.28
2022-08-25T12:42:31.871Z,41.18
2022-08-25T12:45:20.584Z,42.48
2022-08-25T12:47:49.095Z,42.14
2022-08-25T12:50:29.500Z,42.59
2022-08-25T12:53:11.241Z,42.87
2022-08-25T12:55:40.491Z,43.00
2022-08-25T12:58:07.114Z,42.29
2022-08-25T13:00:52.856Z,42.38
2022-08-25T13:06:38.413Z,44.89
2022-08-25T13:09:42.258Z,45.24
2022-08-25T13:12:24.008Z,45.60
2022-08-25T13:14:56.396Z,42.54
2022-08-25T13:17:33.812Z,42.76
2022-08-25T13:20:23.332Z,38.52
2022-08-25T13:23:00.158Z,39.77
2022-08-25T13:25:31.982Z,40.83
2022-08-25T13:28:01.898Z,38.70
2022-08-25T13:30:30.983Z,40.16
2022-08-25T13:32:58.961Z,39.64
2022-08-25T13:35:32.865Z,40.75
2022-08-25T13:38:16.592Z,39.58
2022-08-25T13:40:44.296Z,38.17
2022-08-25T13:43:13.129Z,40.16
2022-08-25T13:45:42.766Z,39.09
2022-08-25T13:48:20.864Z,38.95
2022-08-25T13:50:52.058Z,38.58
2022-08-25T13:53:25.541Z,38.71
2022-08-25T13:55:58.227Z,37.78
2022-08-25T13:58:39.402Z,38.84
2022-08-25T14:01:23.055Z,39.51
2022-08-25T14:04:32.069Z,40.05
2022-08-25T14:07:26.195Z,40.17
2022-08-25T14:10:00.209Z,39.26
2022-08-25T14:12:46.163Z,38.59
2022-08-25T14:15:20.188Z,38.16
2022-08-25T14:17:59.097Z,38.91
2022-08-25T14:20:29.118Z,37.26
2022-08-25T14:22:58.844Z,37.40
2022-08-25T14:25:27.753Z,37.49
2022-08-25T14:28:06.753Z,38.81
2022-08-25T14:30:36.058Z,37.33
2022-08-25T14:33:03.981Z,38.47
2022-08-25T14:35:31.419Z,38.88
2022-08-25T14:37:58.215Z,38.34
2022-08-25T14:40:25.261Z,39.43
2022-08-25T14:42:51.901Z,39.74
2022-08-25T14:45:18.991Z,40.04
2022-08-25T14:47:49.780Z,40.41
2022-08-25T14:50:20.821Z,39.88
2022-08-25T14:52:48.271Z,37.95
2022-08-25T14:55:31.126Z,38.74
2022-08-25T14:57:58.465Z,39.78
2022-08-25T15:00:25.852Z,40.03
2022-08-25T15:02:53.042Z,40.58
2022-08-25T15:05:27.015Z,39.42
2022-08-25T15:08:14.945Z,39.10
2022-08-25T15:10:41.808Z,40.14
2022-08-25T15:13:10.591Z,37.42
2022-08-25T15:15:39.609Z,40.22
2022-08-25T15:18:20.342Z,39.22
2022-08-25T15:20:47.124Z,40.23
2022-08-25T15:23:18.477Z,39.03
2022-08-25T15:25:46.475Z,38.03
2022-08-25T15:28:13.642Z,39.22
2022-08-25T15:30:45.617Z,40.63
2022-08-25T15:33:13.754Z,40.03
2022-08-25T15:35:41.103Z,39.12
2022-08-25T15:38:08.213Z,39.80
2022-08-25T15:40:37.523Z,40.64
2022-08-25T15:43:05.214Z,39.79
2022-08-25T15:45:32.155Z,39.10
2022-08-25T15:47:59.524Z,37.62
2022-08-25T15:50:26.873Z,39.10
2022-08-25T15:52:53.743Z,38.12
2022-08-25T15:55:20.953Z,39.82
2022-08-25T15:57:49.717Z,40.75
2022-08-25T16:00:18.026Z,39.98
2022-08-25T16:02:45.508Z,40.66
2022-08-25T16:05:13.697Z,39.51
2022-08-25T16:07:43.103Z,40.63
2022-08-25T16:10:12.559Z,39.11
2022-08-25T16:12:40.033Z,38.85
2022-08-25T16:15:10.125Z,40.20
2022-08-25T16:17:40.564Z,41.39
2022-08-25T16:20:13.751Z,41.19
2022-08-25T16:22:41.355Z,41.35
2022-08-25T16:25:08.375Z,42.26
2022-08-25T16:27:38.550Z,39.56
2022-08-25T16:30:07.761Z,37.85
2022-08-25T16:32:34.766Z,36.57
2022-08-25T16:35:05.741Z,34.89
2022-08-25T16:37:37.734Z,36.99
2022-08-25T16:40:05.185Z,37.09
2022-08-25T16:42:31.866Z,40.51
2022-08-25T16:44:59.890Z,41.65
2022-08-25T16:47:26.957Z,41.88
2022-08-25T16:49:53.766Z,44.23
2022-08-25T16:52:39.148Z,44.01
2022-08-25T16:55:14.335Z,43.34
2022-08-25T16:57:54.274Z,44.48
2022-08-25T17:00:24.806Z,45.35
2022-08-25T17:02:56.174Z,45.81
2022-08-25T17:05:22.847Z,45.46
2022-08-25T17:08:09.422Z,46.08
2022-08-25T17:10:39.454Z,46.19
2022-08-25T17:13:06.547Z,46.43
2022-08-25T17:15:33.429Z,46.36
2022-08-25T17:18:00.013Z,47.52
2022-08-25T17:20:27.872Z,46.75
2022-08-25T17:22:54.693Z,48.30
2022-08-25T17:25:21.588Z,48.41
2022-08-25T17:27:48.202Z,48.60
2022-08-25T17:30:15.372Z,48.49
2022-08-25T17:32:43.471Z,49.55
2022-08-25T17:35:12.288Z,50.79
2022-08-25T17:37:41.547Z,50.63
2022-08-25T17:40:09.584Z,50.79
2022-08-25T17:42:37.840Z,51.15
2022-08-25T17:45:05.664Z,50.74
2022-08-25T17:47:32.317Z,51.34
2022-08-25T17:49:59.836Z,51.37
2022-08-25T17:52:27.244Z,52.01
2022-08-25T17:54:53.842Z,52.16
2022-08-25T17:57:20.883Z,52.30
2022-08-25T17:59:47.961Z,52.40
2022-08-25T18:02:14.612Z,52.96
2022-08-25T18:04:41.894Z,52.78
2022-08-25T18:07:08.477Z,53.45
2022-08-25T18:09:35.135Z,53.84
2022-08-25T18:12:01.766Z,53.84
2022-08-25T18:14:30.049Z,53.62
2022-08-25T18:16:57.075Z,53.77
2022-08-25T18:19:24.150Z,54.57
2022-08-25T18:21:52.546Z,54.53
2022-08-25T18:24:19.400Z,54.92
2022-08-25T18:26:46.731Z,55.46
2022-08-25T18:29:13.471Z,56.00
2022-08-25T18:31:41.658Z,57.48
2022-08-25T18:34:11.144Z,57.42
2022-08-25T18:36:38.890Z,57.23
2022-08-25T18:39:24.916Z,57.15
2022-08-25T18:41:51.712Z,57.24
2022-08-25T18:44:18.456Z,57.37
2022-08-25T18:46:46.004Z,57.82
2022-08-25T18:49:15.594Z,57.64
2022-08-25T18:51:44.791Z,58.18
2022-08-25T18:54:22.419Z,58.79
2022-08-25T18:56:52.911Z,58.58
2022-08-25T18:59:19.928Z,58.95
2022-08-25T19:01:50.402Z,59.28
2022-08-25T19:04:17.102Z,59.75
2022-08-25T19:06:44.031Z,60.82
2022-08-25T19:09:11.375Z,60.69
2022-08-25T19:11:38.170Z,60.29
2022-08-25T19:14:11.955Z,60.36
2022-08-25T19:16:42.469Z,60.57
2022-08-25T19:19:13.064Z,60.48
2022-08-25T19:21:41.116Z,60.90
2022-08-25T19:24:09.742Z,61.47
2022-08-25T19:26:36.985Z,61.80
2022-08-25T19:29:08.924Z,62.46
2022-08-25T19:31:36.197Z,63.24
2022-08-25T19:34:04.002Z,63.12
2022-08-25T19:36:30.974Z,62.85
2022-08-25T19:39:00.171Z,62.64
2022-08-25T19:41:30.638Z,63.08
2022-08-25T19:43:58.238Z,64.03
2022-08-25T19:46:35.322Z,64.57
2022-08-25T19:49:14.736Z,64.62
2022-08-25T19:51:44.716Z,64.41
2022-08-25T19:54:13.600Z,64.74
2022-08-25T19:56:53.627Z,64.83
2022-08-25T19:59:34.267Z,64.89
2022-08-25T20:02:12.426Z,64.63
2022-08-25T20:04:49.452Z,64.86
2022-08-25T20:07:22.763Z,64.92
2022-08-25T20:09:51.601Z,65.08
2022-08-25T20:12:20.099Z,64.86
2022-08-25T20:14:47.946Z,64.93
2022-08-25T20:17:23.772Z,64.70
2022-08-25T20:19:54.502Z,64.85
2022-08-25T20:22:26.299Z,64.96
2022-08-25T20:24:58.629Z,64.64
2022-08-25T20:27:33.858Z,64.74
2022-08-25T20:30:02.638Z,64.49
2022-08-25T20:32:31.550Z,64.52
2022-08-25T20:34:58.241Z,64.55
2022-08-25T20:37:25.699Z,64.82
2022-08-25T20:39:53.093Z,64.93
2022-08-25T20:42:20.531Z,65.03
2022-08-25T20:44:47.188Z,64.86
2022-08-25T20:47:14.980Z,65.43
2022-08-25T20:49:44.530Z,65.30
2022-08-25T20:52:12.018Z,65.62
2022-08-25T20:54:40.311Z,65.30
2022-08-25T20:57:07.944Z,65.43
2022-08-25T20:59:34.994Z,65.51
2022-08-25T21:02:02.170Z,65.84
2022-08-25T21:04:29.882Z,65.90
2022-08-25T21:06:57.535Z,65.65
2022-08-25T21:09:26.511Z,65.70
2022-08-25T21:11:54.871Z,65.59
2022-08-25T21:14:22.485Z,65.94
2022-08-25T21:16:50.607Z,66.03
2022-08-25T21:19:26.312Z,66.35
2022-08-25T21:21:54.310Z,66.30
2022-08-25T21:24:26.282Z,66.55
2022-08-25T21:26:55.925Z,66.76
2022-08-25T21:29:25.310Z,67.02
2022-08-25T21:31:52.905Z,67.07
2022-08-25T21:34:21.200Z,67.00
2022-08-25T21:36:49.077Z,67.32
2022-08-25T21:39:15.889Z,67.17
2022-08-25T21:41:45.153Z,66.12
2022-08-25T21:44:13.189Z,65.88
2022-08-25T21:46:41.047Z,66.36
2022-08-25T21:49:07.925Z,66.93
2022-08-25T21:51:41.064Z,68.91
2022-08-25T21:54:11.101Z,69.80
2022-08-25T21:56:42.268Z,70.12
2022-08-25T21:59:15.353Z,70.86
2022-08-25T22:01:43.223Z,70.84
2022-08-25T22:04:11.269Z,70.50
2022-08-25T22:06:38.257Z,70.57
2022-08-25T22:09:06.861Z,70.43
2022-08-25T22:11:35.980Z,71.11
2022-08-25T22:14:03.275Z,71.06
2022-08-25T22:16:31.948Z,70.95
2022-08-25T22:18:59.485Z,70.73
2022-08-25T22:21:27.939Z,71.35
2022-08-25T22:23:58.247Z,71.71
2022-08-25T22:26:27.776Z,71.42
2022-08-25T22:28:55.900Z,71.19
2022-08-25T22:31:23.451Z,71.22
2022-08-25T22:33:51.295Z,71.25
2022-08-25T22:36:26.170Z,72.05
2022-08-25T22:38:53.250Z,71.97
2022-08-25T22:41:21.361Z,71.91
2022-08-25T22:43:49.805Z,71.89
2022-08-25T22:46:18.715Z,72.04
2022-08-25T22:48:46.159Z,72.25
2022-08-25T22:51:15.314Z,71.88
2022-08-25T22:53:43.812Z,72.05
2022-08-25T22:56:12.010Z,72.23
2022-08-25T22:58:39.261Z,72.46
2022-08-25T23:01:16.385Z,73.66
2022-08-25T23:03:44.670Z,73.74
2022-08-25T23:06:24.470Z,73.96
2022-08-25T23:08:53.513Z,73.42
2022-08-25T23:11:21.481Z,73.17
2022-08-25T23:13:48.170Z,73.04
2022-08-25T23:16:15.619Z,72.98
2022-08-25T23:18:43.910Z,73.51
2022-08-25T23:21:29.783Z,73.27
2022-08-25T23:24:01.996Z,73.73
2022-08-25T23:26:29.383Z,73.47
2022-08-25T23:28:55.991Z,73.93
2022-08-25T23:31:22.650Z,74.21
2022-08-25T23:33:50.849Z,74.00
2022-08-25T23:36:20.651Z,74.34
2022-08-25T23:38:51.534Z,74.39
2022-08-25T23:41:21.709Z,74.58
2022-08-25T23:43:49.799Z,74.09
2022-08-25T23:46:20.361Z,74.36
2022-08-25T23:48:47.234Z,75.34
2022-08-25T23:51:25.128Z,75.29
2022-08-25T23:53:51.920Z,74.98
2022-08-25T23:56:18.523Z,75.36
2022-08-25T23:58:46.051Z,75.23
